sensor_id;sensor_type;location;lat;lon;timestamp;temperature;humidity
15625;DHT22;7912;51.376;6.126;2024-03-02T00:00:40;11.30;99.90
15625;DHT22;7912;51.376;6.126;2024-03-02T00:03:07;11.30;99.90
15625;DHT22;7912;51.376;6.126;2024-03-02T00:05:36;11.30;99.90
15625;DHT22;7912;51.376;6.126;2024-03-02T00:08:05;11.30;99.90
15625;DHT22;7912;51.376;6.126;2024-03-02T00:10:40;11.30;99.90
15625;DHT22;7912;51.376;6.126;2024-03-02T00:13:26;11.40;99.90
15625;DHT22;7912;51.376;6.126;2024-03-02T00:15:56;11.40;99.90
15625;DHT22;7912;51.376;6.126;2024-03-02T00:18:30;11.40;99.90
15625;DHT22;7912;51.376;6.126;2024-03-02T00:21:00;11.40;99.90
15625;DHT22;7912;51.376;6.126;2024-03-02T00:23:29;11.40;99.90
15625;DHT22;7912;51.376;6.126;2024-03-02T00:25:58;11.50;99.90
15625;DHT22;7912;51.376;6.126;2024-03-02T00:28:33;11.40;99.90
15625;DHT22;7912;51.376;6.126;2024-03-02T00:31:10;11.50;99.90
15625;DHT22;7912;51.376;6.126;2024-03-02T00:33:46;11.50;99.90
15625;DHT22;7912;51.376;6.126;2024-03-02T00:36:16;11.50;99.90
15625;DHT22;7912;51.376;6.126;2024-03-02T00:38:53;11.60;99.90
15625;DHT22;7912;51.376;6.126;2024-03-02T00:41:31;11.60;99.90
15625;DHT22;7912;51.376;6.126;2024-03-02T00:49:18;11.60;99.90
15625;DHT22;7912;51.376;6.126;2024-03-02T00:51:47;11.70;99.90
15625;DHT22;7912;51.376;6.126;2024-03-02T00:54:25;11.70;99.90
15625;DHT22;7912;51.376;6.126;2024-03-02T00:56:54;11.80;99.90
15625;DHT22;7912;51.376;6.126;2024-03-02T00:59:24;11.80;99.90
15625;DHT22;7912;51.376;6.126;2024-03-02T01:01:52;11.90;99.90
15625;DHT22;7912;51.376;6.126;2024-03-02T01:04:19;11.90;99.90
15625;DHT22;7912;51.376;6.126;2024-03-02T01:06:46;11.90;99.90
15625;DHT22;7912;51.376;6.126;2024-03-02T01:09:14;12.00;99.90
15625;DHT22;7912;51.376;6.126;2024-03-02T01:11:43;12.00;99.90
15625;DHT22;7912;51.376;6.126;2024-03-02T01:14:10;12.10;99.90
15625;DHT22;7912;51.376;6.126;2024-03-02T01:16:37;12.10;99.90
15625;DHT22;7912;51.376;6.126;2024-03-02T01:19:05;12.20;99.90
15625;DHT22;7912;51.376;6.126;2024-03-02T01:21:32;12.20;99.90
15625;DHT22;7912;51.376;6.126;2024-03-02T01:23:59;12.20;99.90
15625;DHT22;7912;51.376;6.126;2024-03-02T01:26:27;12.20;99.90
15625;DHT22;7912;51.376;6.126;2024-03-02T01:28:54;12.30;99.90
15625;DHT22;7912;51.376;6.126;2024-03-02T01:31:21;12.30;99.90
15625;DHT22;7912;51.376;6.126;2024-03-02T01:33:49;12.30;99.90
15625;DHT22;7912;51.376;6.126;2024-03-02T01:36:16;12.40;99.90
15625;DHT22;7912;51.376;6.126;2024-03-02T01:38:43;12.40;99.90
15625;DHT22;7912;51.376;6.126;2024-03-02T01:41:11;12.40;99.90
15625;DHT22;7912;51.376;6.126;2024-03-02T01:43:38;12.40;99.90
15625;DHT22;7912;51.376;6.126;2024-03-02T01:46:07;12.50;99.90
15625;DHT22;7912;51.376;6.126;2024-03-02T01:48:36;12.40;99.90
15625;DHT22;7912;51.376;6.126;2024-03-02T01:51:03;12.40;99.90
15625;DHT22;7912;51.376;6.126;2024-03-02T01:53:33;12.40;99.90
15625;DHT22;7912;51.376;6.126;2024-03-02T01:56:01;12.30;99.90
15625;DHT22;7912;51.376;6.126;2024-03-02T01:58:28;12.30;99.90
15625;DHT22;7912;51.376;6.126;2024-03-02T02:00:55;12.20;99.90
15625;DHT22;7912;51.376;6.126;2024-03-02T02:03:23;12.20;99.90
15625;DHT22;7912;51.376;6.126;2024-03-02T02:05:50;12.10;99.90
15625;DHT22;7912;51.376;6.126;2024-03-02T02:08:17;12.00;99.90
15625;DHT22;7912;51.376;6.126;2024-03-02T02:10:45;11.90;99.90
15625;DHT22;7912;51.376;6.126;2024-03-02T02:13:12;11.90;99.90
15625;DHT22;7912;51.376;6.126;2024-03-02T02:15:39;11.90;99.90
15625;DHT22;7912;51.376;6.126;2024-03-02T02:18:07;11.90;99.90
15625;DHT22;7912;51.376;6.126;2024-03-02T02:20:34;11.80;99.90
15625;DHT22;7912;51.376;6.126;2024-03-02T02:23:03;11.80;99.90
15625;DHT22;7912;51.376;6.126;2024-03-02T02:25:32;11.80;99.90
15625;DHT22;7912;51.376;6.126;2024-03-02T02:27:59;11.90;99.90
15625;DHT22;7912;51.376;6.126;2024-03-02T02:30:30;11.80;99.90
15625;DHT22;7912;51.376;6.126;2024-03-02T02:32:59;11.80;99.90
15625;DHT22;7912;51.376;6.126;2024-03-02T02:35:26;11.80;99.90
15625;DHT22;7912;51.376;6.126;2024-03-02T02:37:55;11.80;99.90
15625;DHT22;7912;51.376;6.126;2024-03-02T02:40:23;11.80;99.90
15625;DHT22;7912;51.376;6.126;2024-03-02T02:42:51;11.80;99.90
15625;DHT22;7912;51.376;6.126;2024-03-02T02:45:21;11.80;99.90
15625;DHT22;7912;51.376;6.126;2024-03-02T02:47:48;11.80;99.90
15625;DHT22;7912;51.376;6.126;2024-03-02T02:50:16;11.80;99.90
15625;DHT22;7912;51.376;6.126;2024-03-02T02:52:43;11.90;99.90
15625;DHT22;7912;51.376;6.126;2024-03-02T02:55:12;11.80;99.90
15625;DHT22;7912;51.376;6.126;2024-03-02T02:57:41;11.80;99.90
15625;DHT22;7912;51.376;6.126;2024-03-02T03:00:14;11.80;99.90
15625;DHT22;7912;51.376;6.126;2024-03-02T03:02:46;11.80;99.90
15625;DHT22;7912;51.376;6.126;2024-03-02T03:05:17;11.80;99.90
15625;DHT22;7912;51.376;6.126;2024-03-02T03:07:45;11.80;99.90
15625;DHT22;7912;51.376;6.126;2024-03-02T03:10:13;11.80;99.90
15625;DHT22;7912;51.376;6.126;2024-03-02T03:12:41;11.80;99.90
15625;DHT22;7912;51.376;6.126;2024-03-02T03:15:10;11.80;99.90
15625;DHT22;7912;51.376;6.126;2024-03-02T03:17:38;11.80;99.90
15625;DHT22;7912;51.376;6.126;2024-03-02T03:20:06;11.80;99.90
15625;DHT22;7912;51.376;6.126;2024-03-02T03:22:37;11.80;99.90
15625;DHT22;7912;51.376;6.126;2024-03-02T03:25:06;11.80;99.90
15625;DHT22;7912;51.376;6.126;2024-03-02T03:27:36;11.80;99.90
15625;DHT22;7912;51.376;6.126;2024-03-02T03:30:04;11.70;99.90
15625;DHT22;7912;51.376;6.126;2024-03-02T03:32:33;11.70;99.90
15625;DHT22;7912;51.376;6.126;2024-03-02T03:35:01;11.70;99.90
15625;DHT22;7912;51.376;6.126;2024-03-02T03:37:28;11.60;99.90
15625;DHT22;7912;51.376;6.126;2024-03-02T03:40:05;11.60;99.90
15625;DHT22;7912;51.376;6.126;2024-03-02T03:42:42;11.50;99.90
15625;DHT22;7912;51.376;6.126;2024-03-02T03:45:09;11.50;99.90
15625;DHT22;7912;51.376;6.126;2024-03-02T03:47:36;11.50;99.90
15625;DHT22;7912;51.376;6.126;2024-03-02T03:50:04;11.50;99.90
15625;DHT22;7912;51.376;6.126;2024-03-02T03:52:34;11.50;99.90
15625;DHT22;7912;51.376;6.126;2024-03-02T03:55:01;11.50;99.90
15625;DHT22;7912;51.376;6.126;2024-03-02T03:57:28;11.40;99.90
15625;DHT22;7912;51.376;6.126;2024-03-02T03:59:56;11.40;99.90
15625;DHT22;7912;51.376;6.126;2024-03-02T04:02:23;11.40;99.90
15625;DHT22;7912;51.376;6.126;2024-03-02T04:04:51;11.40;99.90
15625;DHT22;7912;51.376;6.126;2024-03-02T04:07:18;11.40;99.90
15625;DHT22;7912;51.376;6.126;2024-03-02T04:09:45;11.40;99.90
15625;DHT22;7912;51.376;6.126;2024-03-02T04:12:12;11.40;99.90
15625;DHT22;7912;51.376;6.126;2024-03-02T04:14:40;11.40;99.90
15625;DHT22;7912;51.376;6.126;2024-03-02T04:17:09;11.40;99.90
15625;DHT22;7912;51.376;6.126;2024-03-02T04:19:37;11.40;99.90
15625;DHT22;7912;51.376;6.126;2024-03-02T04:22:04;11.30;99.90
15625;DHT22;7912;51.376;6.126;2024-03-02T04:24:44;11.30;99.90
15625;DHT22;7912;51.376;6.126;2024-03-02T04:27:11;11.30;99.90
15625;DHT22;7912;51.376;6.126;2024-03-02T04:29:38;11.30;99.90
15625;DHT22;7912;51.376;6.126;2024-03-02T04:32:05;11.30;99.90
15625;DHT22;7912;51.376;6.126;2024-03-02T04:34:33;11.30;99.90
15625;DHT22;7912;51.376;6.126;2024-03-02T04:37:00;11.30;99.90
15625;DHT22;7912;51.376;6.126;2024-03-02T04:39:27;11.30;99.90
15625;DHT22;7912;51.376;6.126;2024-03-02T04:41:55;11.30;99.90
15625;DHT22;7912;51.376;6.126;2024-03-02T04:44:22;11.30;99.90
15625;DHT22;7912;51.376;6.126;2024-03-02T04:46:49;11.30;99.90
15625;DHT22;7912;51.376;6.126;2024-03-02T04:49:16;11.30;99.90
15625;DHT22;7912;51.376;6.126;2024-03-02T04:51:43;11.30;99.90
15625;DHT22;7912;51.376;6.126;2024-03-02T04:54:10;11.30;99.90
15625;DHT22;7912;51.376;6.126;2024-03-02T04:56:37;11.30;99.90
15625;DHT22;7912;51.376;6.126;2024-03-02T04:59:11;11.30;99.90
15625;DHT22;7912;51.376;6.126;2024-03-02T05:01:38;11.20;99.90
15625;DHT22;7912;51.376;6.126;2024-03-02T05:04:06;11.20;99.90
15625;DHT22;7912;51.376;6.126;2024-03-02T05:06:33;11.20;99.90
15625;DHT22;7912;51.376;6.126;2024-03-02T05:09:00;11.20;99.90
15625;DHT22;7912;51.376;6.126;2024-03-02T05:11:27;11.20;99.90
15625;DHT22;7912;51.376;6.126;2024-03-02T05:14:06;11.10;99.90
15625;DHT22;7912;51.376;6.126;2024-03-02T05:16:34;11.10;99.90
15625;DHT22;7912;51.376;6.126;2024-03-02T05:19:03;11.10;99.90
15625;DHT22;7912;51.376;6.126;2024-03-02T05:21:33;11.10;99.90
15625;DHT22;7912;51.376;6.126;2024-03-02T05:24:01;11.00;99.90
15625;DHT22;7912;51.376;6.126;2024-03-02T05:26:29;11.00;99.90
15625;DHT22;7912;51.376;6.126;2024-03-02T05:28:56;11.00;99.90
15625;DHT22;7912;51.376;6.126;2024-03-02T05:31:23;11.00;99.90
15625;DHT22;7912;51.376;6.126;2024-03-02T05:33:50;11.00;99.90
15625;DHT22;7912;51.376;6.126;2024-03-02T05:36:23;11.00;99.90
15625;DHT22;7912;51.376;6.126;2024-03-02T05:38:51;11.00;99.90
15625;DHT22;7912;51.376;6.126;2024-03-02T05:41:18;11.00;99.90
15625;DHT22;7912;51.376;6.126;2024-03-02T05:43:45;11.00;99.90
15625;DHT22;7912;51.376;6.126;2024-03-02T05:46:33;11.00;99.90
15625;DHT22;7912;51.376;6.126;2024-03-02T05:49:01;11.00;99.90
15625;DHT22;7912;51.376;6.126;2024-03-02T05:51:29;11.00;99.90
15625;DHT22;7912;51.376;6.126;2024-03-02T05:53:56;11.00;99.90
15625;DHT22;7912;51.376;6.126;2024-03-02T05:56:23;11.00;99.90
15625;DHT22;7912;51.376;6.126;2024-03-02T05:58:50;11.00;99.90
15625;DHT22;7912;51.376;6.126;2024-03-02T06:01:36;10.90;99.90
15625;DHT22;7912;51.376;6.126;2024-03-02T06:04:03;10.90;99.90
15625;DHT22;7912;51.376;6.126;2024-03-02T06:06:31;10.90;99.90
15625;DHT22;7912;51.376;6.126;2024-03-02T06:09:05;10.90;99.90
15625;DHT22;7912;51.376;6.126;2024-03-02T06:11:38;10.90;99.90
15625;DHT22;7912;51.376;6.126;2024-03-02T06:14:07;10.90;99.90
15625;DHT22;7912;51.376;6.126;2024-03-02T06:16:35;10.80;99.90
15625;DHT22;7912;51.376;6.126;2024-03-02T06:19:02;10.80;99.90
15625;DHT22;7912;51.376;6.126;2024-03-02T06:21:30;10.80;99.90
15625;DHT22;7912;51.376;6.126;2024-03-02T06:23:57;10.80;99.90
15625;DHT22;7912;51.376;6.126;2024-03-02T06:26:24;10.80;99.90
15625;DHT22;7912;51.376;6.126;2024-03-02T06:28:52;10.80;99.90
15625;DHT22;7912;51.376;6.126;2024-03-02T06:31:19;10.80;99.90
15625;DHT22;7912;51.376;6.126;2024-03-02T06:33:46;10.80;99.90
15625;DHT22;7912;51.376;6.126;2024-03-02T06:36:13;10.80;99.90
15625;DHT22;7912;51.376;6.126;2024-03-02T06:38:42;10.80;99.90
15625;DHT22;7912;51.376;6.126;2024-03-02T06:41:09;10.70;99.90
15625;DHT22;7912;51.376;6.126;2024-03-02T06:43:37;10.70;99.90
15625;DHT22;7912;51.376;6.126;2024-03-02T06:46:05;10.70;99.90
15625;DHT22;7912;51.376;6.126;2024-03-02T06:48:36;10.70;99.90
15625;DHT22;7912;51.376;6.126;2024-03-02T06:51:03;10.70;99.90
15625;DHT22;7912;51.376;6.126;2024-03-02T06:53:30;10.70;99.90
15625;DHT22;7912;51.376;6.126;2024-03-02T06:56:00;10.70;99.90
15625;DHT22;7912;51.376;6.126;2024-03-02T06:58:27;10.70;99.90
15625;DHT22;7912;51.376;6.126;2024-03-02T07:00:54;10.70;99.90
15625;DHT22;7912;51.376;6.126;2024-03-02T07:03:21;10.70;99.90
15625;DHT22;7912;51.376;6.126;2024-03-02T07:05:48;10.70;99.90
15625;DHT22;7912;51.376;6.126;2024-03-02T07:08:15;10.80;99.90
15625;DHT22;7912;51.376;6.126;2024-03-02T07:10:43;10.80;99.90
15625;DHT22;7912;51.376;6.126;2024-03-02T07:13:10;10.80;99.90
15625;DHT22;7912;51.376;6.126;2024-03-02T07:15:37;10.80;99.90
15625;DHT22;7912;51.376;6.126;2024-03-02T07:18:30;10.80;99.90
15625;DHT22;7912;51.376;6.126;2024-03-02T07:20:58;10.70;99.90
15625;DHT22;7912;51.376;6.126;2024-03-02T07:23:27;10.70;99.90
15625;DHT22;7912;51.376;6.126;2024-03-02T07:25:55;10.70;99.90
15625;DHT22;7912;51.376;6.126;2024-03-02T07:28:26;10.70;99.90
15625;DHT22;7912;51.376;6.126;2024-03-02T07:31:04;10.70;99.90
15625;DHT22;7912;51.376;6.126;2024-03-02T07:33:32;10.60;99.90
15625;DHT22;7912;51.376;6.126;2024-03-02T07:35:59;10.60;99.90
15625;DHT22;7912;51.376;6.126;2024-03-02T07:38:31;10.60;99.90
15625;DHT22;7912;51.376;6.126;2024-03-02T07:41:01;10.60;99.90
15625;DHT22;7912;51.376;6.126;2024-03-02T07:43:28;10.60;99.90
15625;DHT22;7912;51.376;6.126;2024-03-02T07:45:56;10.60;99.90
15625;DHT22;7912;51.376;6.126;2024-03-02T07:48:23;10.70;99.90
15625;DHT22;7912;51.376;6.126;2024-03-02T07:50:51;10.70;99.90
15625;DHT22;7912;51.376;6.126;2024-03-02T07:53:19;10.80;99.90
15625;DHT22;7912;51.376;6.126;2024-03-02T07:55:46;10.80;99.90
15625;DHT22;7912;51.376;6.126;2024-03-02T07:58:13;10.90;99.90
15625;DHT22;7912;51.376;6.126;2024-03-02T08:00:41;11.00;99.90
15625;DHT22;7912;51.376;6.126;2024-03-02T08:03:08;11.10;99.90
15625;DHT22;7912;51.376;6.126;2024-03-02T08:05:38;11.20;99.90
15625;DHT22;7912;51.376;6.126;2024-03-02T08:08:06;11.30;99.90
15625;DHT22;7912;51.376;6.126;2024-03-02T08:10:33;11.40;99.90
15625;DHT22;7912;51.376;6.126;2024-03-02T08:13:00;11.50;99.90
15625;DHT22;7912;51.376;6.126;2024-03-02T08:15:46;11.60;99.90
15625;DHT22;7912;51.376;6.126;2024-03-02T08:18:14;11.70;99.90
15625;DHT22;7912;51.376;6.126;2024-03-02T08:20:41;11.80;99.90
15625;DHT22;7912;51.376;6.126;2024-03-02T08:23:08;11.90;99.90
15625;DHT22;7912;51.376;6.126;2024-03-02T08:25:35;12.00;99.90
15625;DHT22;7912;51.376;6.126;2024-03-02T08:28:04;12.10;99.90
15625;DHT22;7912;51.376;6.126;2024-03-02T08:30:31;12.20;99.90
15625;DHT22;7912;51.376;6.126;2024-03-02T08:32:59;12.20;99.90
15625;DHT22;7912;51.376;6.126;2024-03-02T08:35:26;12.30;99.90
15625;DHT22;7912;51.376;6.126;2024-03-02T08:37:54;12.30;99.90
15625;DHT22;7912;51.376;6.126;2024-03-02T08:40:22;12.40;99.90
15625;DHT22;7912;51.376;6.126;2024-03-02T08:42:49;12.40;99.90
15625;DHT22;7912;51.376;6.126;2024-03-02T08:45:16;12.50;99.90
15625;DHT22;7912;51.376;6.126;2024-03-02T08:47:44;12.50;99.90
15625;DHT22;7912;51.376;6.126;2024-03-02T08:50:11;12.50;99.90
15625;DHT22;7912;51.376;6.126;2024-03-02T08:52:38;12.50;99.90
15625;DHT22;7912;51.376;6.126;2024-03-02T08:55:06;12.50;99.90
15625;DHT22;7912;51.376;6.126;2024-03-02T08:57:36;12.60;99.90
15625;DHT22;7912;51.376;6.126;2024-03-02T09:00:04;12.60;99.90
15625;DHT22;7912;51.376;6.126;2024-03-02T09:02:32;12.60;99.90
15625;DHT22;7912;51.376;6.126;2024-03-02T09:05:00;12.60;99.90
15625;DHT22;7912;51.376;6.126;2024-03-02T09:07:27;12.70;99.90
15625;DHT22;7912;51.376;6.126;2024-03-02T09:09:55;12.70;99.90
15625;DHT22;7912;51.376;6.126;2024-03-02T09:12:22;12.80;99.90
15625;DHT22;7912;51.376;6.126;2024-03-02T09:14:49;12.80;99.90
15625;DHT22;7912;51.376;6.126;2024-03-02T09:17:16;12.90;99.90
15625;DHT22;7912;51.376;6.126;2024-03-02T09:19:43;12.90;99.90
15625;DHT22;7912;51.376;6.126;2024-03-02T09:22:10;13.00;99.90
15625;DHT22;7912;51.376;6.126;2024-03-02T09:24:38;13.10;99.90
15625;DHT22;7912;51.376;6.126;2024-03-02T09:27:05;13.20;99.90
15625;DHT22;7912;51.376;6.126;2024-03-02T09:29:32;13.20;99.90
15625;DHT22;7912;51.376;6.126;2024-03-02T09:31:59;13.30;99.90
15625;DHT22;7912;51.376;6.126;2024-03-02T09:34:26;13.40;99.90
15625;DHT22;7912;51.376;6.126;2024-03-02T09:36:54;13.40;99.90
15625;DHT22;7912;51.376;6.126;2024-03-02T09:39:21;13.50;99.80
15625;DHT22;7912;51.376;6.126;2024-03-02T09:41:49;13.50;99.60
15625;DHT22;7912;51.376;6.126;2024-03-02T09:44:16;13.60;99.40
15625;DHT22;7912;51.376;6.126;2024-03-02T09:46:44;13.60;99.20
15625;DHT22;7912;51.376;6.126;2024-03-02T09:49:16;13.70;99.30
15625;DHT22;7912;51.376;6.126;2024-03-02T09:52:03;13.70;99.20
15625;DHT22;7912;51.376;6.126;2024-03-02T09:54:32;13.80;98.50
15625;DHT22;7912;51.376;6.126;2024-03-02T09:56:59;13.80;98.90
15625;DHT22;7912;51.376;6.126;2024-03-02T09:59:29;13.90;98.70
15625;DHT22;7912;51.376;6.126;2024-03-02T10:02:15;13.90;98.40
15625;DHT22;7912;51.376;6.126;2024-03-02T10:04:43;14.00;97.80
15625;DHT22;7912;51.376;6.126;2024-03-02T10:07:16;14.00;98.30
15625;DHT22;7912;51.376;6.126;2024-03-02T10:09:45;14.10;98.20
15625;DHT22;7912;51.376;6.126;2024-03-02T10:12:16;14.20;98.50
15625;DHT22;7912;51.376;6.126;2024-03-02T10:14:44;14.40;98.50
15625;DHT22;7912;51.376;6.126;2024-03-02T10:17:13;14.60;98.30
15625;DHT22;7912;51.376;6.126;2024-03-02T10:19:42;14.90;97.90
15625;DHT22;7912;51.376;6.126;2024-03-02T10:22:10;15.20;97.70
15625;DHT22;7912;51.376;6.126;2024-03-02T10:24:39;15.60;97.20
15625;DHT22;7912;51.376;6.126;2024-03-02T10:27:15;15.90;96.80
15625;DHT22;7912;51.376;6.126;2024-03-02T10:29:47;16.30;96.10
15625;DHT22;7912;51.376;6.126;2024-03-02T10:32:16;16.70;95.00
15625;DHT22;7912;51.376;6.126;2024-03-02T10:34:45;17.00;94.60
15625;DHT22;7912;51.376;6.126;2024-03-02T10:37:15;17.30;93.30
15625;DHT22;7912;51.376;6.126;2024-03-02T10:39:46;17.60;93.40
15625;DHT22;7912;51.376;6.126;2024-03-02T10:42:14;17.90;93.10
15625;DHT22;7912;51.376;6.126;2024-03-02T10:44:42;18.20;92.50
15625;DHT22;7912;51.376;6.126;2024-03-02T10:47:11;18.50;91.80
15625;DHT22;7912;51.376;6.126;2024-03-02T10:49:42;18.70;90.80
15625;DHT22;7912;51.376;6.126;2024-03-02T10:52:10;19.00;89.60
15625;DHT22;7912;51.376;6.126;2024-03-02T10:54:37;19.20;89.10
15625;DHT22;7912;51.376;6.126;2024-03-02T10:57:07;19.40;87.40
15625;DHT22;7912;51.376;6.126;2024-03-02T10:59:37;19.50;87.00
15625;DHT22;7912;51.376;6.126;2024-03-02T11:02:14;19.70;86.50
15625;DHT22;7912;51.376;6.126;2024-03-02T11:04:42;19.80;84.70
15625;DHT22;7912;51.376;6.126;2024-03-02T11:07:12;20.00;82.60
15625;DHT22;7912;51.376;6.126;2024-03-02T11:10:00;20.10;80.60
15625;DHT22;7912;51.376;6.126;2024-03-02T11:12:36;20.10;78.10
15625;DHT22;7912;51.376;6.126;2024-03-02T11:15:10;20.20;79.50
15625;DHT22;7912;51.376;6.126;2024-03-02T11:17:43;20.20;76.50
15625;DHT22;7912;51.376;6.126;2024-03-02T11:20:11;20.20;77.00
15625;DHT22;7912;51.376;6.126;2024-03-02T11:22:40;20.20;77.30
15625;DHT22;7912;51.376;6.126;2024-03-02T11:25:23;20.20;77.50
15625;DHT22;7912;51.376;6.126;2024-03-02T11:33:08;20.50;76.20
15625;DHT22;7912;51.376;6.126;2024-03-02T11:35:42;20.60;77.10
15625;DHT22;7912;51.376;6.126;2024-03-02T11:38:14;20.80;75.70
15625;DHT22;7912;51.376;6.126;2024-03-02T11:40:42;20.80;75.80
15625;DHT22;7912;51.376;6.126;2024-03-02T11:43:09;20.80;74.80
15625;DHT22;7912;51.376;6.126;2024-03-02T11:45:38;20.80;74.30
15625;DHT22;7912;51.376;6.126;2024-03-02T11:48:14;20.70;73.50
15625;DHT22;7912;51.376;6.126;2024-03-02T11:50:46;20.70;72.00
15625;DHT22;7912;51.376;6.126;2024-03-02T11:53:17;20.60;70.50
15625;DHT22;7912;51.376;6.126;2024-03-02T11:55:45;20.50;70.20
15625;DHT22;7912;51.376;6.126;2024-03-02T11:58:17;20.40;70.50
15625;DHT22;7912;51.376;6.126;2024-03-02T12:00:51;20.30;70.90
15625;DHT22;7912;51.376;6.126;2024-03-02T12:03:21;20.20;71.50
15625;DHT22;7912;51.376;6.126;2024-03-02T12:05:50;20.20;70.70
15625;DHT22;7912;51.376;6.126;2024-03-02T12:08:18;20.20;70.20
15625;DHT22;7912;51.376;6.126;2024-03-02T12:11:01;20.20;70.20
15625;DHT22;7912;51.376;6.126;2024-03-02T12:13:30;20.20;69.50
15625;DHT22;7912;51.376;6.126;2024-03-02T12:16:05;20.20;70.70
15625;DHT22;7912;51.376;6.126;2024-03-02T12:18:32;20.20;70.30
15625;DHT22;7912;51.376;6.126;2024-03-02T12:21:00;20.10;70.40
15625;DHT22;7912;51.376;6.126;2024-03-02T12:23:29;19.90;70.20
15625;DHT22;7912;51.376;6.126;2024-03-02T12:25:56;19.70;70.80
15625;DHT22;7912;51.376;6.126;2024-03-02T12:28:24;19.40;71.00
15625;DHT22;7912;51.376;6.126;2024-03-02T12:30:51;19.20;71.70
15625;DHT22;7912;51.376;6.126;2024-03-02T12:33:21;19.10;72.50
15625;DHT22;7912;51.376;6.126;2024-03-02T12:35:49;18.90;73.00
15625;DHT22;7912;51.376;6.126;2024-03-02T12:38:16;18.80;74.20
15625;DHT22;7912;51.376;6.126;2024-03-02T12:40:44;18.70;74.40
15625;DHT22;7912;51.376;6.126;2024-03-02T12:43:11;18.60;74.90
15625;DHT22;7912;51.376;6.126;2024-03-02T12:45:38;18.50;75.20
15625;DHT22;7912;51.376;6.126;2024-03-02T12:48:06;18.40;75.70
15625;DHT22;7912;51.376;6.126;2024-03-02T12:50:33;18.40;76.40
15625;DHT22;7912;51.376;6.126;2024-03-02T12:53:01;18.40;76.90
15625;DHT22;7912;51.376;6.126;2024-03-02T12:55:29;18.40;77.40
15625;DHT22;7912;51.376;6.126;2024-03-02T12:57:57;18.50;77.80
15625;DHT22;7912;51.376;6.126;2024-03-02T13:00:26;18.50;77.50
15625;DHT22;7912;51.376;6.126;2024-03-02T13:02:54;18.60;77.60
15625;DHT22;7912;51.376;6.126;2024-03-02T13:05:32;18.60;77.80
15625;DHT22;7912;51.376;6.126;2024-03-02T13:08:00;18.60;77.40
15625;DHT22;7912;51.376;6.126;2024-03-02T13:10:30;18.70;77.90
15625;DHT22;7912;51.376;6.126;2024-03-02T13:12:59;18.70;77.80
15625;DHT22;7912;51.376;6.126;2024-03-02T13:15:28;18.70;77.70
15625;DHT22;7912;51.376;6.126;2024-03-02T13:17:59;18.70;77.70
15625;DHT22;7912;51.376;6.126;2024-03-02T13:20:32;18.70;77.60
15625;DHT22;7912;51.376;6.126;2024-03-02T13:22:59;18.70;77.70
15625;DHT22;7912;51.376;6.126;2024-03-02T13:25:26;18.70;77.90
15625;DHT22;7912;51.376;6.126;2024-03-02T13:27:56;18.70;77.30
15625;DHT22;7912;51.376;6.126;2024-03-02T13:30:23;18.70;77.50
15625;DHT22;7912;51.376;6.126;2024-03-02T13:32:51;18.70;77.80
15625;DHT22;7912;51.376;6.126;2024-03-02T13:35:20;18.70;77.90
15625;DHT22;7912;51.376;6.126;2024-03-02T13:41:58;18.60;77.10
15625;DHT22;7912;51.376;6.126;2024-03-02T13:44:32;18.60;78.40
15625;DHT22;7912;51.376;6.126;2024-03-02T13:47:00;18.60;78.50
15625;DHT22;7912;51.376;6.126;2024-03-02T13:49:27;18.60;78.70
15625;DHT22;7912;51.376;6.126;2024-03-02T13:52:08;18.50;79.00
15625;DHT22;7912;51.376;6.126;2024-03-02T13:54:41;18.50;79.10
15625;DHT22;7912;51.376;6.126;2024-03-02T13:57:10;18.50;79.70
15625;DHT22;7912;51.376;6.126;2024-03-02T13:59:39;18.50;80.20
15625;DHT22;7912;51.376;6.126;2024-03-02T14:06:17;18.50;80.30
15625;DHT22;7912;51.376;6.126;2024-03-02T14:08:45;18.50;81.70
15625;DHT22;7912;51.376;6.126;2024-03-02T14:11:17;18.50;81.40
15625;DHT22;7912;51.376;6.126;2024-03-02T14:13:45;18.50;81.60
15625;DHT22;7912;51.376;6.126;2024-03-02T14:16:20;18.50;81.60
15625;DHT22;7912;51.376;6.126;2024-03-02T14:18:48;18.50;82.10
15625;DHT22;7912;51.376;6.126;2024-03-02T14:21:18;18.50;82.10
15625;DHT22;7912;51.376;6.126;2024-03-02T14:28:00;18.50;83.40
15625;DHT22;7912;51.376;6.126;2024-03-02T14:34:15;18.70;84.70
15625;DHT22;7912;51.376;6.126;2024-03-02T14:36:48;18.80;85.30
15625;DHT22;7912;51.376;6.126;2024-03-02T14:39:20;18.90;85.10
15625;DHT22;7912;51.376;6.126;2024-03-02T14:45:51;19.10;84.20
15625;DHT22;7912;51.376;6.126;2024-03-02T14:56:45;19.20;82.70
15625;DHT22;7912;51.376;6.126;2024-03-02T15:00:35;19.20;82.50
15625;DHT22;7912;51.376;6.126;2024-03-02T15:04:33;19.10;82.80
15625;DHT22;7912;51.376;6.126;2024-03-02T15:11:18;18.80;83.20
15625;DHT22;7912;51.376;6.126;2024-03-02T15:17:52;18.50;84.60
15625;DHT22;7912;51.376;6.126;2024-03-02T15:21:20;18.40;85.00
15625;DHT22;7912;51.376;6.126;2024-03-02T15:24:22;18.30;85.20
15625;DHT22;7912;51.376;6.126;2024-03-02T15:26:56;18.40;86.10
15625;DHT22;7912;51.376;6.126;2024-03-02T15:29:40;18.40;86.40
15625;DHT22;7912;51.376;6.126;2024-03-02T15:32:33;18.40;86.10
15625;DHT22;7912;51.376;6.126;2024-03-02T15:35:13;18.40;86.30
15625;DHT22;7912;51.376;6.126;2024-03-02T15:38:16;18.40;86.20
15625;DHT22;7912;51.376;6.126;2024-03-02T15:41:04;18.30;86.40
15625;DHT22;7912;51.376;6.126;2024-03-02T15:43:49;18.30;86.50
15625;DHT22;7912;51.376;6.126;2024-03-02T15:46:31;18.20;86.90
15625;DHT22;7912;51.376;6.126;2024-03-02T15:49:36;18.20;87.20
15625;DHT22;7912;51.376;6.126;2024-03-02T15:57:29;18.10;87.80
15625;DHT22;7912;51.376;6.126;2024-03-02T16:00:27;18.10;88.20
15625;DHT22;7912;51.376;6.126;2024-03-02T16:03:57;18.00;88.10
15625;DHT22;7912;51.376;6.126;2024-03-02T16:07:15;18.00;88.00
15625;DHT22;7912;51.376;6.126;2024-03-02T16:10:13;17.90;88.50
15625;DHT22;7912;51.376;6.126;2024-03-02T16:13:01;17.80;88.70
15625;DHT22;7912;51.376;6.126;2024-03-02T16:16:13;17.70;88.80
15625;DHT22;7912;51.376;6.126;2024-03-02T16:19:05;17.70;89.30
15625;DHT22;7912;51.376;6.126;2024-03-02T16:22:06;17.60;89.40
15625;DHT22;7912;51.376;6.126;2024-03-02T16:25:07;17.50;89.70
15625;DHT22;7912;51.376;6.126;2024-03-02T16:27:41;17.50;90.00
15625;DHT22;7912;51.376;6.126;2024-03-02T16:30:27;17.40;90.10
15625;DHT22;7912;51.376;6.126;2024-03-02T16:33:56;17.30;90.20
15625;DHT22;7912;51.376;6.126;2024-03-02T16:36:54;17.20;90.40
15625;DHT22;7912;51.376;6.126;2024-03-02T16:40:19;17.20;90.50
15625;DHT22;7912;51.376;6.126;2024-03-02T16:43:02;17.10;90.70
15625;DHT22;7912;51.376;6.126;2024-03-02T16:46:01;17.10;90.80
15625;DHT22;7912;51.376;6.126;2024-03-02T16:48:59;17.00;90.90
15625;DHT22;7912;51.376;6.126;2024-03-02T16:51:26;17.00;91.00
15625;DHT22;7912;51.376;6.126;2024-03-02T16:53:53;17.00;91.10
15625;DHT22;7912;51.376;6.126;2024-03-02T16:56:21;16.90;91.20
15625;DHT22;7912;51.376;6.126;2024-03-02T16:58:48;16.90;91.20
15625;DHT22;7912;51.376;6.126;2024-03-02T17:01:15;16.80;91.20
15625;DHT22;7912;51.376;6.126;2024-03-02T17:03:42;16.80;91.30
15625;DHT22;7912;51.376;6.126;2024-03-02T17:06:09;16.80;91.50